createdAt,value
2023-05-09T00:00:32.029Z,100939.56
2023-05-09T00:03:33.551Z,100934.97
2023-05-09T00:06:35.323Z,100929.69
2023-05-09T00:09:36.848Z,100932.41
2023-05-09T00:12:38.307Z,100927.13
2023-05-09T00:15:39.839Z,100927.13
2023-05-09T00:18:42.273Z,100927.13
2023-05-09T00:21:43.811Z,100921.84
2023-05-09T00:24:45.366Z,100916.41
2023-05-09T00:27:47.011Z,100917.25
2023-05-09T00:30:48.527Z,100910.97
2023-05-09T00:33:50.313Z,100909.28
2023-05-09T00:36:51.791Z,100904.81
2023-05-09T00:39:53.283Z,100898.38
2023-05-09T00:42:58.156Z,100897.53
2023-05-09T00:45:59.819Z,100895.81
2023-05-09T00:49:01.567Z,100889.53
2023-05-09T00:52:04.884Z,100888.50
2023-05-09T00:55:08.300Z,100876.78
2023-05-09T00:58:10.966Z,100876.94
2023-05-09T01:01:12.683Z,100868.78
2023-05-09T01:04:15.098Z,100869.78
2023-05-09T01:07:19.568Z,100862.66
2023-05-09T01:10:22.026Z,100861.63
2023-05-09T01:13:46.839Z,100854.31
2023-05-09T01:17:02.648Z,100853.31
2023-05-09T01:20:35.665Z,100842.59
2023-05-09T01:23:46.617Z,100837.16
2023-05-09T01:27:12.707Z,100843.44
2023-05-09T01:30:16.786Z,100845.31
2023-05-09T01:33:20.261Z,100834.59
2023-05-09T01:36:23.271Z,100836.31
2023-05-09T01:39:26.789Z,100829.00
2023-05-09T01:42:36.552Z,100833.44
2023-05-09T01:45:40.526Z,100822.69
2023-05-09T01:48:42.835Z,100826.28
2023-05-09T01:51:45.079Z,100824.41
2023-05-09T01:54:48.347Z,100825.28
2023-05-09T01:57:50.328Z,100818.94
2023-05-09T02:00:52.966Z,100820.69
2023-05-09T02:03:56.101Z,100818.81
2023-05-09T02:06:58.785Z,100822.38
2023-05-09T02:10:00.810Z,100815.25
2023-05-09T02:13:02.330Z,100808.97
2023-05-09T02:16:05.840Z,100803.50
2023-05-09T02:19:07.559Z,100794.47
2023-05-09T02:22:09.468Z,100812.53
2023-05-09T02:25:15.271Z,100805.22
2023-05-09T02:28:19.476Z,100802.50
2023-05-09T02:31:24.054Z,100798.75
2023-05-09T02:34:25.802Z,100796.19
2023-05-09T02:37:28.562Z,100803.34
2023-05-09T02:40:31.057Z,100787.84
2023-05-09T02:43:32.564Z,100794.31
2023-05-09T02:46:34.209Z,100792.47
2023-05-09T02:49:35.852Z,100785.31
2023-05-09T02:52:39.112Z,100784.28
2023-05-09T02:55:40.610Z,100785.31
2023-05-09T02:58:42.173Z,100780.72
2023-05-09T03:01:43.722Z,100786.16
2023-05-09T03:04:45.548Z,100779.69
2023-05-09T03:07:47.391Z,100775.97
2023-05-09T03:10:48.901Z,100776.81
2023-05-09T03:13:51.167Z,100765.09
2023-05-09T03:16:52.731Z,100772.09
2023-05-09T03:20:01.703Z,100767.50
2023-05-09T03:23:05.515Z,100757.47
2023-05-09T03:26:06.975Z,100761.91
2023-05-09T03:29:08.651Z,100755.44
2023-05-09T03:32:10.646Z,100763.25
2023-05-09T03:35:12.384Z,100756.81
2023-05-09T03:38:13.981Z,100757.66
2023-05-09T03:41:17.613Z,100756.63
2023-05-09T03:44:21.366Z,100764.81
2023-05-09T03:47:22.906Z,100748.66
2023-05-09T03:50:24.569Z,100749.50
2023-05-09T03:53:28.237Z,100741.16
2023-05-09T03:56:30.054Z,100738.44
2023-05-09T03:59:31.759Z,100745.75
2023-05-09T04:02:34.486Z,100742.03
2023-05-09T04:05:36.387Z,100734.72
2023-05-09T04:08:39.689Z,100726.72
2023-05-09T04:11:42.222Z,100725.72
2023-05-09T04:14:48.946Z,100728.44
2023-05-09T04:17:51.442Z,100723.84
2023-05-09T04:20:53.456Z,100725.72
2023-05-09T04:23:55.699Z,100733.00
2023-05-09T04:27:04.796Z,100723.00
2023-05-09T04:30:06.941Z,100723.84
2023-05-09T04:33:09.513Z,100724.84
2023-05-09T04:36:11.275Z,100726.72
2023-05-09T04:39:13.785Z,100722.13
2023-05-09T04:42:24.275Z,100722.13
2023-05-09T04:45:26.638Z,100724.00
2023-05-09T04:48:28.993Z,100726.56
2023-05-09T04:51:30.533Z,100720.28
2023-05-09T04:54:32.008Z,100718.56
2023-05-09T04:57:33.756Z,100715.69
2023-05-09T05:00:36.493Z,100720.28
2023-05-09T05:03:38.681Z,100702.09
2023-05-09T05:06:40.873Z,100708.38
2023-05-09T05:09:43.004Z,100711.09
2023-05-09T05:12:44.846Z,100703.94
2023-05-09T05:15:48.352Z,100703.06
2023-05-09T05:18:50.221Z,100704.94
2023-05-09T05:21:53.733Z,100704.09
2023-05-09T05:24:55.396Z,100702.22
2023-05-09T05:27:57.406Z,100702.41
2023-05-09T05:30:58.911Z,100700.53
2023-05-09T05:34:00.966Z,100698.81
2023-05-09T05:37:27.921Z,100693.38
2023-05-09T05:40:29.606Z,100689.81
2023-05-09T05:43:32.860Z,100687.09
2023-05-09T05:46:35.141Z,100687.94
2023-05-09T05:49:37.180Z,100680.81
2023-05-09T05:52:39.856Z,100682.50
2023-05-09T05:55:45.785Z,100677.25
2023-05-09T05:58:47.353Z,100678.09
2023-05-09T06:01:49.148Z,100683.53
2023-05-09T06:04:50.711Z,100675.50
2023-05-09T06:07:53.073Z,100664.81
2023-05-09T06:10:55.194Z,100670.06
2023-05-09T06:13:56.755Z,100662.09
2023-05-09T06:16:59.453Z,100677.38
2023-05-09T06:20:01.146Z,100674.84
2023-05-09T06:23:02.736Z,100674.84
2023-05-09T06:26:04.458Z,100671.25
2023-05-09T06:29:06.502Z,100668.53
2023-05-09T06:32:08.164Z,100674.84
2023-05-09T06:35:09.734Z,100666.00
2023-05-09T06:38:11.262Z,100664.13
2023-05-09T06:41:12.856Z,100656.81
2023-05-09T06:44:14.368Z,100650.53
2023-05-09T06:47:16.052Z,100642.38
2023-05-09T06:50:17.564Z,100646.13
2023-05-09T06:53:19.053Z,100645.25
2023-05-09T06:56:22.709Z,100628.91
2023-05-09T06:59:24.363Z,100627.06
2023-05-09T07:02:25.960Z,100624.34
2023-05-09T07:05:27.656Z,100621.78
2023-05-09T07:08:29.197Z,100614.66
2023-05-09T07:11:37.039Z,100621.63
2023-05-09T07:14:38.582Z,100615.50
2023-05-09T07:17:40.301Z,100612.78
2023-05-09T07:20:41.899Z,100616.34
2023-05-09T07:23:43.375Z,100610.06
2023-05-09T07:26:44.861Z,100615.50
2023-05-09T07:29:46.388Z,100604.63
2023-05-09T07:32:47.880Z,100605.47
2023-05-09T07:35:49.614Z,100600.03
2023-05-09T07:38:53.454Z,100590.84
2023-05-09T07:41:54.917Z,100592.72
2023-05-09T07:44:56.630Z,100590.00
2023-05-09T07:47:58.193Z,100583.72
2023-05-09T07:50:59.746Z,100575.56
2023-05-09T07:54:01.289Z,100575.56
2023-05-09T07:57:02.862Z,100569.25
2023-05-09T08:00:06.320Z,100566.53
2023-05-09T08:03:15.025Z,100562.09
2023-05-09T08:06:16.818Z,100554.81
2023-05-09T08:09:18.631Z,100548.50
2023-05-09T08:12:20.198Z,100554.81
2023-05-09T08:15:21.792Z,100546.81
2023-05-09T08:18:23.311Z,100536.78
2023-05-09T08:21:25.055Z,100531.34
2023-05-09T08:24:26.648Z,100530.50
2023-05-09T08:27:28.126Z,100525.06
2023-05-09T08:30:29.758Z,100523.38
2023-05-09T08:33:31.611Z,100521.50
2023-05-09T08:36:33.769Z,100516.91
2023-05-09T08:39:35.220Z,100514.19
2023-05-09T08:42:38.276Z,100508.75
2023-05-09T08:45:58.925Z,100511.47
2023-05-09T08:49:00.958Z,100513.34
2023-05-09T08:52:02.910Z,100502.47
2023-05-09T08:55:04.990Z,100499.75
2023-05-09T08:58:07.098Z,100506.03
2023-05-09T09:01:09.482Z,100502.28
2023-05-09T09:04:13.680Z,100493.25
2023-05-09T09:07:16.498Z,100491.38
2023-05-09T09:10:20.804Z,100484.09
2023-05-09T09:13:23.213Z,100484.09
2023-05-09T09:16:26.603Z,100491.22
2023-05-09T09:19:31.421Z,100480.34
2023-05-09T09:22:34.810Z,100482.03
2023-05-09T09:25:36.718Z,100466.75
2023-05-09T09:28:38.296Z,100465.72
2023-05-09T09:31:44.676Z,100471.00
2023-05-09T09:34:49.649Z,100462.00
2023-05-09T09:37:58.496Z,100460.97
2023-05-09T09:41:01.252Z,100452.13
2023-05-09T09:44:12.385Z,100442.78
2023-05-09T09:47:13.892Z,100433.97
2023-05-09T09:50:20.121Z,100427.31
2023-05-09T09:53:21.896Z,100427.47
2023-05-09T09:56:39.137Z,100425.44
2023-05-09T09:59:40.712Z,100423.72
2023-05-09T10:02:50.434Z,100416.25
2023-05-09T10:06:01.851Z,100408.94
2023-05-09T10:09:03.434Z,100411.84
2023-05-09T10:12:06.803Z,100410.66
2023-05-09T10:15:09.508Z,100398.94
2023-05-09T10:18:14.634Z,100398.75
2023-05-09T10:21:16.286Z,100397.91
2023-05-09T10:24:27.389Z,100391.44
2023-05-09T10:27:32.125Z,100384.13
2023-05-09T10:30:41.162Z,100385.81
2023-05-09T10:33:49.237Z,100374.78
2023-05-09T10:36:50.885Z,100361.19
2023-05-09T10:39:53.670Z,100360.16
2023-05-09T10:42:55.205Z,100353.50
2023-05-09T10:45:56.847Z,100351.28
2023-05-09T10:48:59.003Z,100347.56
2023-05-09T10:52:00.523Z,100339.19
2023-05-09T10:55:05.031Z,100332.75
2023-05-09T10:58:37.279Z,100323.41
2023-05-09T11:01:39.538Z,100318.97
2023-05-09T11:04:41.492Z,100317.09
2023-05-09T11:07:43.405Z,100307.22
2023-05-09T11:10:45.068Z,100303.50
2023-05-09T11:13:46.537Z,100298.06
2023-05-09T11:16:59.553Z,100301.47
2023-05-09T11:20:05.661Z,100293.47
2023-05-09T11:23:08.784Z,100277.13
2023-05-09T11:26:10.386Z,100286.31
2023-05-09T11:29:12.264Z,100279.84
2023-05-09T11:32:15.313Z,100278.00
2023-05-09T11:35:21.509Z,100276.13
2023-05-09T11:38:23.040Z,100276.28
2023-05-09T11:41:24.620Z,100269.84
2023-05-09T11:44:27.970Z,100274.25
2023-05-09T11:47:30.758Z,100266.09
2023-05-09T11:50:32.318Z,100264.25
2023-05-09T11:53:34.109Z,100258.81
2023-05-09T11:56:37.988Z,100261.31
2023-05-09T11:59:39.585Z,100259.66
2023-05-09T12:02:44.574Z,100257.59
2023-05-09T12:05:48.403Z,100261.16
2023-05-09T12:08:50.481Z,100252.16
2023-05-09T12:11:52.165Z,100249.06
2023-05-09T12:14:53.694Z,100243.63
2023-05-09T12:18:06.538Z,100244.13
2023-05-09T12:21:08.083Z,100231.53
2023-05-09T12:24:09.887Z,100218.78
2023-05-09T12:27:11.670Z,100223.03
2023-05-09T12:30:16.087Z,100221.97
2023-05-09T12:33:18.606Z,100219.25
2023-05-09T12:36:20.122Z,100204.66
2023-05-09T12:39:22.885Z,100199.00
2023-05-09T12:42:27.606Z,100204.13
2023-05-09T12:45:32.780Z,100203.25
2023-05-09T12:48:38.811Z,100189.47
2023-05-09T12:51:49.326Z,100184.69
2023-05-09T12:54:52.600Z,100188.25
2023-05-09T12:58:02.571Z,100187.22
2023-05-09T13:01:05.080Z,100182.66
2023-05-09T13:04:07.489Z,100188.94
2023-05-09T13:07:13.037Z,100185.16
2023-05-09T13:10:21.463Z,100178.72
2023-05-09T13:13:26.627Z,100174.97
2023-05-09T13:16:28.780Z,100167.63
2023-05-09T13:19:30.295Z,100173.91
2023-05-09T13:22:32.301Z,100158.47
2023-05-09T13:25:33.819Z,100155.75
2023-05-09T13:28:36.314Z,100160.13
2023-05-09T13:31:37.963Z,100159.28
2023-05-09T13:34:39.462Z,100148.22
2023-05-09T13:37:40.999Z,100144.66
2023-05-09T13:40:42.471Z,100133.59
2023-05-09T13:43:43.947Z,100128.97
2023-05-09T13:46:45.867Z,100133.38
2023-05-09T13:49:47.404Z,100120.66
2023-05-09T13:52:49.893Z,100110.59
2023-05-09T13:55:51.386Z,100102.22
2023-05-09T13:58:52.921Z,100096.78
2023-05-09T14:01:57.323Z,100100.38
2023-05-09T14:04:58.966Z,100088.44
2023-05-09T14:08:01.509Z,100082.84
2023-05-09T14:11:03.028Z,100086.19
2023-05-09T14:14:04.492Z,100078.91
2023-05-09T14:17:05.918Z,100068.00
2023-05-09T14:20:08.132Z,100066.13
2023-05-09T14:23:09.633Z,100053.72
2023-05-09T14:26:11.147Z,100053.72
2023-05-09T14:29:12.887Z,100041.78
2023-05-09T14:32:14.532Z,100037.41
2023-05-09T14:35:16.137Z,100038.22
2023-05-09T14:38:17.936Z,100028.19
2023-05-09T14:41:21.422Z,100039.06
2023-05-09T14:44:24.903Z,100032.97
2023-05-09T14:47:26.446Z,100023.94
2023-05-09T14:50:28.070Z,100023.13
2023-05-09T14:53:30.061Z,100013.06
2023-05-09T14:56:31.572Z,100005.09
2023-05-09T14:59:34.808Z,100006.13
2023-05-09T15:02:39.383Z,100010.53
2023-05-09T15:05:41.711Z,100009.69
2023-05-09T15:08:43.266Z,99999.84
2023-05-09T15:11:48.878Z,99997.09
2023-05-09T15:14:53.786Z,99989.13
2023-05-09T15:17:55.427Z,100000.00
2023-05-09T15:20:57.359Z,99992.88
2023-05-09T15:23:59.313Z,99985.75
2023-05-09T15:27:00.816Z,99984.72
2023-05-09T15:30:02.407Z,99981.16
2023-05-09T15:33:03.986Z,99982.00
2023-05-09T15:36:06.734Z,99980.31
2023-05-09T15:39:08.486Z,99974.88
2023-05-09T15:42:12.180Z,99979.28
2023-05-09T15:45:13.712Z,99974.88
2023-05-09T15:48:16.237Z,99971.09
2023-05-09T15:51:17.712Z,99966.69
2023-05-09T15:54:20.194Z,99962.09
2023-05-09T15:57:21.966Z,99957.50
2023-05-09T16:00:23.548Z,99955.63
2023-05-09T16:03:25.323Z,99947.44
2023-05-09T16:06:27.272Z,99945.56
2023-05-09T16:09:28.763Z,99942.66
2023-05-09T16:12:32.704Z,99941.63
2023-05-09T16:15:35.036Z,99934.31
2023-05-09T16:18:36.487Z,99929.91
2023-05-09T16:21:39.181Z,99926.34
2023-05-09T16:24:40.772Z,99922.78
2023-05-09T16:27:42.281Z,99915.63
2023-05-09T16:30:43.773Z,99915.63
2023-05-09T16:33:46.906Z,99909.34
2023-05-09T16:36:48.517Z,99896.78
2023-05-09T16:39:50.078Z,99900.34
2023-05-09T16:42:51.612Z,99907.44
2023-05-09T16:45:53.152Z,99911.22
2023-05-09T16:48:55.750Z,99902.22
2023-05-09T16:51:57.332Z,99892.16
2023-05-09T16:54:59.345Z,99888.59
2023-05-09T16:58:01.164Z,99892.16
2023-05-09T17:01:02.751Z,99883.16
2023-05-09T17:04:06.605Z,99884.00
2023-05-09T17:07:08.648Z,99872.28
2023-05-09T17:10:10.977Z,99881.09
2023-05-09T17:13:12.713Z,99875.44
2023-05-09T17:16:14.513Z,99876.28
2023-05-09T17:19:16.535Z,99872.56
2023-05-09T17:22:18.008Z,99874.22
2023-05-09T17:25:19.508Z,99874.06
2023-05-09T17:28:21.103Z,99873.00
2023-05-09T17:31:22.728Z,99862.78
2023-05-09T17:34:24.345Z,99864.44
2023-05-09T17:37:25.843Z,99859.66
2023-05-09T17:40:27.298Z,99857.63
2023-05-09T17:43:28.989Z,99854.72
2023-05-09T17:46:32.578Z,99860.78
2023-05-09T17:49:34.070Z,99864.38
2023-05-09T17:52:36.397Z,99855.16
2023-05-09T17:55:37.913Z,99856.22
2023-05-09T17:58:39.412Z,99849.72
2023-05-09T18:01:41.205Z,99856.00
2023-05-09T18:04:44.544Z,99853.50
2023-05-09T18:07:46.021Z,99853.50
2023-05-09T18:10:47.503Z,99855.16
2023-05-09T18:13:48.993Z,99862.50
2023-05-09T18:16:50.704Z,99856.00
2023-05-09T18:19:52.193Z,99851.59
2023-05-09T18:22:54.315Z,99856.84
2023-05-09T18:25:56.038Z,99856.84
2023-05-09T18:28:57.846Z,99845.94
2023-05-09T18:31:59.337Z,99845.78
2023-05-09T18:35:00.900Z,99851.66
2023-05-09T18:38:02.402Z,99850.16
2023-05-09T18:41:06.044Z,99848.94
2023-05-09T18:44:08.490Z,99847.28
2023-05-09T18:47:10.173Z,99845.59
2023-05-09T18:50:13.545Z,99844.38
2023-05-09T18:53:15.221Z,99850.66
2023-05-09T18:56:18.943Z,99838.53
2023-05-09T18:59:20.593Z,99843.78
2023-05-09T19:02:23.402Z,99852.81
2023-05-09T19:05:25.886Z,99845.28
2023-05-09T19:08:27.910Z,99842.38
2023-05-09T19:11:29.476Z,99847.63
2023-05-09T19:14:31.177Z,99852.88
2023-05-09T19:17:32.752Z,99846.41
2023-05-09T19:20:34.261Z,99848.91
2023-05-09T19:23:35.821Z,99845.34
2023-05-09T19:26:37.382Z,99842.47
2023-05-09T19:29:38.915Z,99856.06
2023-05-09T19:32:41.816Z,99854.84
2023-05-09T19:35:43.699Z,99856.53
2023-05-09T19:38:45.442Z,99848.34
2023-05-09T19:41:46.936Z,99851.91
2023-05-09T19:44:48.525Z,99853.63
2023-05-09T19:47:50.084Z,99857.19
2023-05-09T19:50:56.765Z,99858.69
2023-05-09T19:53:58.261Z,99853.41
2023-05-09T19:56:59.736Z,99848.81
2023-05-09T20:00:01.423Z,99849.47
2023-05-09T20:03:04.205Z,99849.47
2023-05-09T20:06:05.914Z,99839.63
2023-05-09T20:09:07.523Z,99839.22
2023-05-09T20:12:09.626Z,99841.09
2023-05-09T20:15:11.998Z,99835.44
2023-05-09T20:18:16.119Z,99838.38
2023-05-09T20:21:17.609Z,99830.00
2023-05-09T20:24:19.725Z,99828.13
2023-05-09T20:27:21.936Z,99828.13
2023-05-09T20:30:23.410Z,99818.25
2023-05-09T20:33:24.878Z,99822.69
2023-05-09T20:36:27.983Z,99818.25
2023-05-09T20:39:29.484Z,99807.38
2023-05-09T20:42:30.946Z,99805.69
2023-05-09T20:45:32.612Z,99800.25
2023-05-09T20:48:34.221Z,99808.41
2023-05-09T20:51:35.777Z,99799.41
2023-05-09T20:54:37.590Z,99792.25
2023-05-09T20:57:39.092Z,99792.25
2023-05-09T21:00:40.899Z,99785.97
2023-05-09T21:03:42.342Z,99788.69
2023-05-09T21:06:43.773Z,99787.00
2023-05-09T21:09:47.450Z,99785.97
2023-05-09T21:12:48.956Z,99778.84
2023-05-09T21:15:50.868Z,99772.53
2023-05-09T21:18:52.358Z,99779.03
2023-05-09T21:21:54.977Z,99772.53
2023-05-09T21:24:56.402Z,99762.69
2023-05-09T21:27:57.854Z,99764.56
2023-05-09T21:31:01.459Z,99760.13
2023-05-09T21:34:09.446Z,99756.56
2023-05-09T21:37:10.958Z,99750.28
2023-05-09T21:40:12.979Z,99743.16
2023-05-09T21:43:15.366Z,99749.44
2023-05-09T21:46:16.876Z,99743.34
2023-05-09T21:49:18.374Z,99736.22
2023-05-09T21:52:19.918Z,99739.78
2023-05-09T21:55:21.695Z,99734.34
2023-05-09T21:58:23.222Z,99735.34
2023-05-09T22:01:24.753Z,99730.13
2023-05-09T22:04:26.300Z,99723.84
2023-05-09T22:07:27.813Z,99722.13
2023-05-09T22:10:29.354Z,99724.03
2023-05-09T22:13:31.032Z,99721.31
2023-05-09T22:16:32.755Z,99722.34
2023-05-09T22:19:34.213Z,99720.66
2023-05-09T22:22:35.688Z,99723.59
2023-05-09T22:25:38.227Z,99733.44
2023-05-09T22:28:39.657Z,99734.47
2023-05-09T22:31:41.334Z,99737.19
2023-05-09T22:34:42.785Z,99735.50
2023-05-09T22:37:44.228Z,99732.78
2023-05-09T22:40:45.903Z,99733.81
2023-05-09T22:43:47.406Z,99730.25
2023-05-09T22:46:48.869Z,99731.28
2023-05-09T22:49:50.553Z,99733.81
2023-05-09T22:52:52.055Z,99730.44
2023-05-09T22:55:54.674Z,99735.88
2023-05-09T22:58:56.255Z,99736.06
2023-05-09T23:01:58.685Z,99738.78
2023-05-09T23:05:00.167Z,99737.97
2023-05-09T23:08:01.660Z,99731.66
2023-05-09T23:11:04.286Z,99725.19
2023-05-09T23:14:06.374Z,99727.91
2023-05-09T23:17:07.857Z,99726.22
2023-05-09T23:20:09.732Z,99730.84
2023-05-09T23:23:11.248Z,99718.25
2023-05-09T23:26:12.717Z,99708.41
2023-05-09T23:29:14.937Z,99711.13
2023-05-09T23:32:16.415Z,99712.78
2023-05-09T23:35:19.085Z,99705.84
2023-05-09T23:38:20.634Z,99703.13
2023-05-09T23:41:22.415Z,99699.56
2023-05-09T23:44:23.951Z,99696.84
2023-05-09T23:47:25.449Z,99694.13
2023-05-09T23:50:26.930Z,99687.00
2023-05-09T23:53:28.482Z,99679.84
2023-05-09T23:56:30.566Z,99687.19
2023-05-09T23:59:32.078Z,99680.06
